Thursday, July 24, 2014
17:51 UTC
  |  Log In   |  Register Free
Airport Search:

Oroville Municipal Airport
(KOVE)

Oroville Municipal Airport Diagram
No Airport Diagram Available

FAA data valid effective July 24, 2014 until September 18, 2014 (unless otherwise noted).

 
 
 
 
 
 
 
 
 
 
 
 
 
 

Current Aviation Weather for Oroville Municipal Airport (KOVE)

The most recent METAR observation for KOVE was updated at: 1553 UTC
METAR Summary (Translated METAR)
KOVE
241553Z AUTO 00000KT 10SM CLR 25/07 A3001 RMK AO2 SLP163 T02500072
KCIC
(21.4 nm NW from KOVE)
241555Z 31010KT 80SM SKC 25/07 A3001
TAF
No TAF information found within 50 nm of KOVE
  Airport Weather Conditions for KOVE

 Current Weather at OVE
77° F
Fair
Variable winds at 3.5 mph
OVE NOAA Radar

Pressure: 30.00 in
Humidity: 39%
Wind: Variable at 3.5 MPH (3 KT)
Dew Point: 50.0°F
Visibility: 10.00 mi


Airport Weather Forecast for KOVE

Translated METAR and TAF for KOVE
Translated METAR for KOVE (1745 UTC 24 July 2014)
found at http://aviationweather.gov/adds/metars/
 
METAR text: KOVE 241653Z AUTO VRB03KT 10SM CLR 25/10 A3000 RMK AO2 SLP160 T02500100
Conditions at: KOVE (OROVILLE , CA, US) observed 1653 UTC 24 July 2014
Temperature: 25.0°C (77°F)
Dewpoint: 10.0°C (50°F) [RH = 39%]
Pressure (altimeter): 30.00 inches Hg (1016.0 mb)
[Sea-level pressure: 1016.0 mb]
Winds: variable direction winds at 3 MPH (3 knots; 1.6 m/s)
Visibility: 10 or more miles (16+ km)
Ceiling: at least 12,000 feet AGL
Clouds: sky clear below 12,000 feet AGL
Weather: automated observation with no human augmentation;
there may or may not be significant weather present at this time
Translated TAF for KOVE

There is no translated TAF available for this airport

Find All Airport Services Find A Hotel Find A Rental Car Find A Golf Course Find A Restaurant $100 Hamburger



FBO's on the Field
FBO Company Facility Photos Services Transportation Aviation Fuel Prices: Prices include tax
Catering Weather Repair Courtesy Rental Type 100LL JetA JetA+ MOGAS 8087
 
Oroville Municipal Airport

This FBO has not yet been rated
FS:Epic
Last Updated: Jul-14
Login to update fuel prices
SS:
Contact Oroville Municipal AirportMore FBO Information
 
Add another FBO Facility Photos Catering Weather Repair Courtesy Rental Type 100LL JetA JetA+ MOGAS 8087
Services Transportation Aviation Fuel Prices: Prices include tax


GlobalAir.com Airport Resource Center model-print
model-print
model-print
model-print